createdAt,value
2022-10-11T00:01:01.349Z,6.60
2022-10-11T00:03:36.320Z,6.58
2022-10-11T00:06:06.298Z,6.70
2022-10-11T00:08:34.923Z,6.71
2022-10-11T00:11:06.850Z,6.60
2022-10-11T00:13:35.907Z,6.49
2022-10-11T00:16:11.585Z,6.41
2022-10-11T00:18:40.057Z,6.46
2022-10-11T00:21:12.131Z,6.46
2022-10-11T00:23:41.340Z,6.41
2022-10-11T00:26:10.868Z,6.34
2022-10-11T00:28:39.986Z,6.27
2022-10-11T00:31:16.318Z,6.18
2022-10-11T00:33:44.215Z,6.14
2022-10-11T00:36:14.747Z,6.24
2022-10-11T00:38:46.147Z,6.35
2022-10-11T00:41:15.623Z,6.32
2022-10-11T00:43:44.923Z,6.24
2022-10-11T00:46:18.716Z,6.16
2022-10-11T00:48:53.762Z,6.08
2022-10-11T00:54:37.206Z,6.07
2022-10-11T00:57:10.838Z,6.06
2022-10-11T00:59:48.198Z,6.05
2022-10-11T01:02:18.327Z,6.05
2022-10-11T01:04:46.815Z,6.09
2022-10-11T01:07:15.189Z,6.01
2022-10-11T01:09:42.779Z,5.96
2022-10-11T01:12:23.406Z,5.98
2022-10-11T01:15:15.138Z,6.03
2022-10-11T01:17:59.382Z,6.03
2022-10-11T01:20:35.517Z,5.96
2022-10-11T01:23:53.315Z,5.90
2022-10-11T01:26:42.203Z,5.89
2022-10-11T01:30:04.299Z,5.87
2022-10-11T01:32:47.521Z,5.84
2022-10-11T01:35:55.451Z,5.94
2022-10-11T01:38:42.814Z,5.95
2022-10-11T01:41:21.662Z,5.82
2022-10-11T01:43:53.774Z,5.79
2022-10-11T01:46:22.072Z,5.81
2022-10-11T01:49:00.357Z,5.79
2022-10-11T01:51:35.845Z,5.72
2022-10-11T01:58:05.131Z,5.71
2022-10-11T02:00:55.253Z,5.68
2022-10-11T02:03:57.174Z,5.68
2022-10-11T02:06:46.265Z,5.67
2022-10-11T02:09:34.023Z,5.69
2022-10-11T02:12:14.663Z,5.66
2022-10-11T02:14:49.473Z,5.62
2022-10-11T02:17:24.600Z,5.51
2022-10-11T02:19:58.394Z,5.45
2022-10-11T02:22:34.385Z,5.44
2022-10-11T02:25:08.986Z,5.48
2022-10-11T02:27:40.601Z,5.50
2022-10-11T02:30:10.927Z,5.49
2022-10-11T02:32:43.442Z,5.44
2022-10-11T02:35:12.651Z,5.47
2022-10-11T02:38:11.131Z,5.44
2022-10-11T02:40:47.836Z,5.42
2022-10-11T02:43:28.268Z,5.43
2022-10-11T02:46:01.431Z,5.37
2022-10-11T02:48:31.963Z,5.33
2022-10-11T02:50:59.551Z,5.27
2022-10-11T02:53:27.255Z,5.25
2022-10-11T02:55:56.019Z,5.19
2022-10-11T02:58:25.458Z,5.14
2022-10-11T03:00:53.184Z,5.17
2022-10-11T03:03:20.818Z,5.16
2022-10-11T03:05:49.077Z,5.17
2022-10-11T03:08:17.419Z,5.12
2022-10-11T03:10:45.540Z,5.07
2022-10-11T03:13:17.906Z,5.06
2022-10-11T03:16:02.400Z,5.10
2022-10-11T03:18:31.616Z,5.04
2022-10-11T03:20:59.662Z,4.96
2022-10-11T03:23:27.540Z,4.98
2022-10-11T03:25:55.496Z,5.07
2022-10-11T03:28:23.236Z,5.12
2022-10-11T03:30:51.895Z,5.05
2022-10-11T03:33:20.123Z,4.95
2022-10-11T03:35:48.935Z,4.90
2022-10-11T03:38:20.982Z,4.96
2022-10-11T03:40:49.339Z,5.04
2022-10-11T03:43:18.080Z,4.97
2022-10-11T03:45:45.941Z,4.89
2022-10-11T03:48:13.500Z,4.91
2022-10-11T03:50:41.051Z,4.99
2022-10-11T03:53:09.099Z,4.99
2022-10-11T03:55:40.291Z,4.91
2022-10-11T03:58:08.362Z,4.95
2022-10-11T04:00:36.760Z,4.99
2022-10-11T04:03:04.461Z,5.00
2022-10-11T04:05:32.153Z,4.89
2022-10-11T04:07:59.745Z,4.85
2022-10-11T04:10:27.482Z,4.91
2022-10-11T04:12:55.025Z,4.89
2022-10-11T04:15:23.144Z,4.92
2022-10-11T04:17:50.809Z,4.85
2022-10-11T04:20:18.610Z,4.74
2022-10-11T04:22:46.233Z,4.68
2022-10-11T04:25:14.095Z,4.76
2022-10-11T04:27:42.063Z,4.77
2022-10-11T04:30:11.226Z,4.81
2022-10-11T04:32:38.932Z,4.77
2022-10-11T04:35:06.909Z,4.66
2022-10-11T04:37:34.726Z,4.60
2022-10-11T04:40:03.362Z,4.68
2022-10-11T04:42:30.930Z,4.73
2022-10-11T04:44:58.617Z,4.70
2022-10-11T04:47:26.545Z,4.66
2022-10-11T04:49:54.196Z,4.63
2022-10-11T04:52:25.564Z,4.62
2022-10-11T04:54:53.720Z,4.64
2022-10-11T04:57:21.338Z,4.70
2022-10-11T04:59:50.355Z,4.72
2022-10-11T05:02:18.360Z,4.65
2022-10-11T05:04:46.203Z,4.54
2022-10-11T05:07:13.960Z,4.52
2022-10-11T05:09:41.608Z,4.54
2022-10-11T05:12:10.010Z,4.51
2022-10-11T05:14:37.639Z,4.44
2022-10-11T05:17:05.856Z,4.39
2022-10-11T05:19:33.524Z,4.34
2022-10-11T05:22:01.096Z,4.29
2022-10-11T05:24:28.751Z,4.27
2022-10-11T05:27:00.890Z,4.27
2022-10-11T05:29:30.873Z,4.25
2022-10-11T05:31:58.547Z,4.20
2022-10-11T05:34:26.166Z,4.32
2022-10-11T05:36:53.939Z,4.38
2022-10-11T05:39:21.578Z,4.35
2022-10-11T05:41:49.191Z,4.31
2022-10-11T05:44:16.773Z,4.27
2022-10-11T05:46:44.415Z,4.33
2022-10-11T05:49:12.224Z,4.31
2022-10-11T05:51:40.338Z,4.29
2022-10-11T05:54:07.926Z,4.29
2022-10-11T05:56:35.621Z,4.28
2022-10-11T05:59:05.013Z,4.29
2022-10-11T06:01:32.788Z,4.30
2022-10-11T06:04:00.486Z,4.28
2022-10-11T06:06:28.358Z,4.32
2022-10-11T06:08:55.996Z,4.37
2022-10-11T06:11:27.292Z,4.36
2022-10-11T06:13:58.165Z,4.32
2022-10-11T06:16:26.829Z,4.35
2022-10-11T06:18:55.767Z,4.36
2022-10-11T06:21:24.726Z,4.37
2022-10-11T06:23:58.260Z,4.47
2022-10-11T06:26:29.909Z,4.43
2022-10-11T06:28:59.019Z,4.42
2022-10-11T06:31:27.134Z,4.40
2022-10-11T06:33:55.329Z,4.42
2022-10-11T06:36:22.931Z,4.50
2022-10-11T06:38:55.114Z,4.49
2022-10-11T06:41:26.968Z,4.45
2022-10-11T06:43:55.280Z,4.55
2022-10-11T06:46:26.607Z,4.56
2022-10-11T06:48:56.312Z,4.45
2022-10-11T06:51:25.221Z,4.36
2022-10-11T06:53:56.827Z,4.31
2022-10-11T06:56:26.214Z,4.30
2022-10-11T06:58:55.515Z,4.39
2022-10-11T07:01:24.111Z,4.49
2022-10-11T07:03:55.825Z,4.49
2022-10-11T07:06:27.632Z,4.47
2022-10-11T07:08:55.769Z,4.51
2022-10-11T07:11:27.798Z,4.52
2022-10-11T07:13:59.419Z,4.45
2022-10-11T07:16:28.558Z,4.48
2022-10-11T07:19:01.516Z,4.58
2022-10-11T07:21:31.344Z,4.63
2022-10-11T07:24:00.273Z,4.66
2022-10-11T07:26:33.869Z,4.72
2022-10-11T07:29:09.784Z,4.93
2022-10-11T07:31:41.126Z,5.07
2022-10-11T07:34:10.598Z,5.11
2022-10-11T07:36:38.405Z,5.27
2022-10-11T07:39:08.297Z,5.45
2022-10-11T07:41:38.879Z,5.57
2022-10-11T07:44:09.560Z,5.58
2022-10-11T07:46:37.266Z,5.66
2022-10-11T07:49:04.992Z,5.73
2022-10-11T07:51:33.377Z,5.79
2022-10-11T07:54:06.148Z,5.94
2022-10-11T07:56:35.077Z,6.05
2022-10-11T07:59:05.782Z,6.10
2022-10-11T08:01:33.930Z,6.15
2022-10-11T08:04:01.661Z,6.24
2022-10-11T08:06:32.556Z,6.34
2022-10-11T08:09:01.434Z,6.42
2022-10-11T08:11:33.976Z,6.58
2022-10-11T08:14:06.246Z,6.74
2022-10-11T08:16:35.919Z,6.77
2022-10-11T08:19:03.946Z,6.89
2022-10-11T08:21:32.699Z,7.00
2022-10-11T08:24:03.633Z,7.16
2022-10-11T08:26:32.425Z,7.27
2022-10-11T08:29:05.086Z,7.40
2022-10-11T08:31:35.218Z,7.50
2022-10-11T08:34:03.895Z,7.59
2022-10-11T08:36:31.780Z,7.65
2022-10-11T08:38:59.409Z,7.71
2022-10-11T08:41:47.968Z,7.78
2022-10-11T08:45:10.182Z,7.87
2022-10-11T08:47:39.995Z,7.97
2022-10-11T08:50:20.370Z,8.06
2022-10-11T08:52:56.568Z,8.12
2022-10-11T08:55:39.978Z,8.17
2022-10-11T08:58:16.286Z,8.30
2022-10-11T09:00:48.066Z,8.41
2022-10-11T09:03:40.337Z,8.49
2022-10-11T09:06:18.563Z,8.65
2022-10-11T09:09:10.866Z,8.68
2022-10-11T09:12:08.989Z,8.79
2022-10-11T09:14:58.175Z,8.81
2022-10-11T09:18:02.929Z,8.88
2022-10-11T09:20:35.401Z,9.04
2022-10-11T09:23:20.187Z,9.15
2022-10-11T09:25:58.949Z,9.32
2022-10-11T09:29:06.684Z,9.36
2022-10-11T09:31:34.625Z,9.39
2022-10-11T09:34:15.617Z,9.48
2022-10-11T09:37:24.235Z,9.56
2022-10-11T09:40:44.752Z,9.70
2022-10-11T09:43:12.684Z,9.79
2022-10-11T09:45:49.219Z,9.86
2022-10-11T09:48:41.361Z,10.02
2022-10-11T09:51:19.569Z,10.16
2022-10-11T09:54:01.164Z,10.27
2022-10-11T09:56:30.905Z,10.31
2022-10-11T09:59:30.239Z,10.34
2022-10-11T10:02:13.368Z,10.42
2022-10-11T10:04:53.519Z,10.56
2022-10-11T10:07:22.373Z,10.63
2022-10-11T10:09:51.174Z,10.73
2022-10-11T10:12:26.006Z,10.84
2022-10-11T10:15:17.590Z,10.92
2022-10-11T10:17:51.322Z,11.01
2022-10-11T10:20:33.231Z,11.08
2022-10-11T10:23:09.959Z,11.11
2022-10-11T10:25:43.222Z,11.19
2022-10-11T10:28:27.466Z,11.29
2022-10-11T10:30:58.850Z,11.43
2022-10-11T10:33:30.926Z,11.62
2022-10-11T10:36:07.780Z,11.78
2022-10-11T10:38:52.172Z,11.90
2022-10-11T10:41:20.360Z,11.97
2022-10-11T10:43:54.969Z,11.99
2022-10-11T10:46:37.765Z,12.02
2022-10-11T10:52:20.921Z,12.25
2022-10-11T10:55:26.467Z,12.31
2022-10-11T10:58:25.613Z,12.40
2022-10-11T11:01:23.216Z,12.51
2022-10-11T11:04:33.526Z,12.63
2022-10-11T11:07:27.040Z,12.77
2022-10-11T11:10:06.996Z,12.80
2022-10-11T11:13:01.192Z,12.88
2022-10-11T11:15:45.279Z,12.99
2022-10-11T11:18:28.878Z,13.00
2022-10-11T11:21:12.769Z,13.06
2022-10-11T11:24:01.590Z,13.14
2022-10-11T11:26:44.562Z,13.13
2022-10-11T11:30:04.105Z,13.08
2022-10-11T11:33:33.309Z,13.12
2022-10-11T11:36:13.423Z,13.06
2022-10-11T11:38:58.321Z,13.07
2022-10-11T11:41:42.823Z,13.10
2022-10-11T11:44:27.462Z,13.13
2022-10-11T11:47:19.647Z,13.13
2022-10-11T11:50:23.079Z,13.14
2022-10-11T11:53:07.610Z,13.24
2022-10-11T11:55:52.699Z,13.28
2022-10-11T11:58:55.411Z,13.28
2022-10-11T12:01:46.267Z,13.28
2022-10-11T12:04:42.173Z,13.31
2022-10-11T12:07:16.676Z,13.34
2022-10-11T12:09:54.298Z,13.39
2022-10-11T12:12:36.409Z,13.38
2022-10-11T12:15:22.698Z,13.46
2022-10-11T12:17:53.388Z,13.56
2022-10-11T12:20:29.044Z,13.72
2022-10-11T12:23:05.228Z,13.90
2022-10-11T12:25:39.666Z,14.01
2022-10-11T12:28:41.738Z,14.05
2022-10-11T12:31:30.385Z,14.13
2022-10-11T12:34:01.016Z,14.32
2022-10-11T12:36:29.696Z,14.42
2022-10-11T12:39:22.772Z,14.41
2022-10-11T12:42:06.965Z,14.51
2022-10-11T12:44:34.946Z,14.63
2022-10-11T12:47:42.983Z,14.73
2022-10-11T12:50:19.766Z,14.80
2022-10-11T12:53:27.855Z,14.91
2022-10-11T12:56:39.733Z,15.02
2022-10-11T12:59:17.315Z,14.93
2022-10-11T13:01:53.356Z,14.96
2022-10-11T13:04:27.135Z,14.89
2022-10-11T13:07:06.566Z,14.88
2022-10-11T13:09:44.141Z,14.89
2022-10-11T13:12:19.473Z,14.85
2022-10-11T13:15:03.775Z,14.82
2022-10-11T13:17:38.646Z,14.74
2022-10-11T13:20:20.540Z,14.78
2022-10-11T13:22:53.292Z,14.88
2022-10-11T13:25:36.258Z,14.91
2022-10-11T13:28:08.887Z,14.95
2022-10-11T13:30:42.306Z,14.99
2022-10-11T13:33:26.727Z,15.00
2022-10-11T13:35:54.406Z,15.09
2022-10-11T13:38:34.196Z,15.13
2022-10-11T13:41:07.735Z,15.13
2022-10-11T13:43:37.099Z,15.15
2022-10-11T13:46:05.685Z,15.16
2022-10-11T13:48:40.965Z,15.19
2022-10-11T13:51:33.464Z,15.16
2022-10-11T13:54:13.594Z,15.14
2022-10-11T13:56:49.591Z,15.10
2022-10-11T13:59:28.099Z,15.06
2022-10-11T14:02:01.855Z,15.03
2022-10-11T14:04:41.109Z,14.96
2022-10-11T14:07:41.068Z,14.97
2022-10-11T14:10:21.326Z,15.03
2022-10-11T14:13:04.071Z,15.05
2022-10-11T14:15:37.395Z,15.06
2022-10-11T14:19:10.747Z,15.08
2022-10-11T14:21:47.433Z,15.17
2022-10-11T14:24:17.754Z,15.15
2022-10-11T14:26:54.833Z,15.14
2022-10-11T14:29:36.031Z,15.16
2022-10-11T14:32:14.437Z,15.22
2022-10-11T14:34:46.091Z,15.19
2022-10-11T14:37:16.885Z,15.18
2022-10-11T14:39:47.602Z,15.19
2022-10-11T14:42:15.638Z,15.18
2022-10-11T14:44:43.696Z,15.21
2022-10-11T14:47:17.137Z,15.20
2022-10-11T14:49:44.966Z,15.13
2022-10-11T14:52:13.702Z,15.05
2022-10-11T14:54:41.495Z,15.02
2022-10-11T14:57:12.692Z,14.98
2022-10-11T14:59:40.618Z,14.94
2022-10-11T15:02:11.687Z,14.97
2022-10-11T15:04:39.373Z,14.94
2022-10-11T15:07:07.193Z,14.97
2022-10-11T15:09:34.945Z,15.05
2022-10-11T15:12:02.544Z,15.07
2022-10-11T15:14:30.166Z,15.09
2022-10-11T15:16:57.752Z,15.08
2022-10-11T15:19:25.654Z,15.10
2022-10-11T15:21:53.735Z,15.10
2022-10-11T15:24:21.417Z,15.10
2022-10-11T15:26:49.741Z,15.10
2022-10-11T15:29:17.965Z,15.16
2022-10-11T15:31:46.228Z,15.22
2022-10-11T15:34:14.236Z,15.25
2022-10-11T15:36:42.647Z,15.36
2022-10-11T15:39:37.157Z,15.38
2022-10-11T15:42:05.218Z,15.43
2022-10-11T15:44:32.803Z,15.47
2022-10-11T15:47:00.433Z,15.44
2022-10-11T15:49:28.098Z,15.41
2022-10-11T15:51:55.678Z,15.41
2022-10-11T15:54:23.358Z,15.42
2022-10-11T15:56:50.997Z,15.36
2022-10-11T15:59:18.644Z,15.30
2022-10-11T16:01:46.933Z,15.28
2022-10-11T16:04:14.624Z,15.26
2022-10-11T16:06:42.249Z,15.25
2022-10-11T16:09:09.915Z,15.22
2022-10-11T16:11:37.567Z,15.20
2022-10-11T16:14:05.362Z,15.18
2022-10-11T16:16:33.008Z,15.15
2022-10-11T16:19:00.567Z,15.05
2022-10-11T16:21:28.230Z,14.94
2022-10-11T16:23:55.952Z,14.86
2022-10-11T16:26:23.690Z,14.76
2022-10-11T16:28:51.364Z,14.59
2022-10-11T16:31:20.961Z,14.43
2022-10-11T16:33:50.427Z,14.32
2022-10-11T16:36:32.107Z,14.12
2022-10-11T16:39:02.223Z,14.01
2022-10-11T16:41:29.835Z,13.91
2022-10-11T16:43:57.547Z,13.78
2022-10-11T16:46:25.429Z,13.69
2022-10-11T16:48:58.417Z,13.54
2022-10-11T16:51:26.229Z,13.41
2022-10-11T16:53:53.824Z,13.34
2022-10-11T16:56:24.161Z,13.23
2022-10-11T16:58:54.093Z,13.18
2022-10-11T17:01:22.583Z,13.03
2022-10-11T17:03:51.368Z,12.91
2022-10-11T17:06:20.295Z,12.78
2022-10-11T17:08:47.974Z,12.62
2022-10-11T17:11:21.592Z,12.48
2022-10-11T17:13:53.432Z,12.45
2022-10-11T17:16:22.614Z,12.35
2022-10-11T17:18:50.590Z,12.28
2022-10-11T17:21:21.317Z,12.17
2022-10-11T17:23:49.414Z,12.09
2022-10-11T17:26:24.840Z,12.02
2022-10-11T17:28:57.672Z,11.89
2022-10-11T17:31:26.827Z,11.75
2022-10-11T17:33:57.286Z,11.66
2022-10-11T17:36:35.786Z,11.50
2022-10-11T17:39:08.789Z,11.42
2022-10-11T17:41:37.143Z,11.35
2022-10-11T17:44:05.086Z,11.20
2022-10-11T17:46:33.490Z,11.07
2022-10-11T17:49:04.934Z,10.96
2022-10-11T17:51:35.630Z,10.86
2022-10-11T17:54:04.459Z,10.79
2022-10-11T17:56:37.728Z,10.73
2022-10-11T17:59:07.364Z,10.72
2022-10-11T18:01:35.759Z,10.61
2022-10-11T18:04:05.936Z,10.52
2022-10-11T18:06:39.531Z,10.41
2022-10-11T18:09:07.367Z,10.34
2022-10-11T18:11:35.051Z,10.27
2022-10-11T18:14:04.459Z,10.24
2022-10-11T18:16:32.579Z,10.05
2022-10-11T18:19:03.783Z,9.90
2022-10-11T18:21:34.693Z,9.85
2022-10-11T18:24:07.638Z,9.85
2022-10-11T18:26:35.328Z,9.76
2022-10-11T18:29:04.959Z,9.65
2022-10-11T18:31:35.087Z,9.55
2022-10-11T18:34:05.511Z,9.51
2022-10-11T18:36:33.336Z,9.45
2022-10-11T18:39:06.418Z,9.49
2022-10-11T18:41:35.735Z,9.48
2022-10-11T18:44:08.651Z,9.44
2022-10-11T18:46:36.615Z,9.38
2022-10-11T18:49:04.638Z,9.37
2022-10-11T18:51:37.219Z,9.23
2022-10-11T18:54:07.295Z,9.11
2022-10-11T18:56:37.186Z,9.03
2022-10-11T18:59:07.565Z,8.87
2022-10-11T19:01:42.549Z,8.70
2022-10-11T19:04:15.824Z,8.66
2022-10-11T19:06:47.799Z,8.63
2022-10-11T19:09:23.197Z,8.52
2022-10-11T19:11:54.518Z,8.43
2022-10-11T19:14:26.027Z,8.41
2022-10-11T19:16:54.844Z,8.43
2022-10-11T19:19:27.330Z,8.40
2022-10-11T19:21:55.668Z,8.28
2022-10-11T19:24:28.338Z,8.21
2022-10-11T19:27:02.366Z,8.22
2022-10-11T19:29:32.315Z,8.17
2022-10-11T19:32:03.842Z,8.08
2022-10-11T19:34:32.681Z,7.99
2022-10-11T19:37:03.091Z,7.84
2022-10-11T19:39:31.516Z,7.83
2022-10-11T19:42:00.321Z,7.84
2022-10-11T19:44:28.870Z,7.83
2022-10-11T19:46:57.525Z,7.86
2022-10-11T19:49:27.178Z,7.87
2022-10-11T19:51:55.579Z,7.78
2022-10-11T19:54:24.591Z,7.78
2022-10-11T19:56:52.658Z,7.71
2022-10-11T19:59:20.341Z,7.59
2022-10-11T20:01:52.313Z,7.49
2022-10-11T20:04:50.605Z,7.39
2022-10-11T20:07:10.368Z,7.40
2022-10-11T20:09:38.142Z,7.45
2022-10-11T20:12:06.421Z,7.39
2022-10-11T20:14:34.011Z,7.43
2022-10-11T20:17:01.665Z,7.37
2022-10-11T20:19:31.207Z,7.33
2022-10-11T20:22:00.598Z,7.24
2022-10-11T20:24:32.943Z,7.21
2022-10-11T20:27:04.439Z,7.21
2022-10-11T20:29:32.347Z,7.11
2022-10-11T20:32:00.059Z,7.16
2022-10-11T20:34:28.044Z,7.22
2022-10-11T20:36:56.271Z,7.19
2022-10-11T20:39:23.998Z,7.13
2022-10-11T20:41:51.589Z,7.09
2022-10-11T20:44:19.270Z,6.93
2022-10-11T20:46:46.861Z,6.85
2022-10-11T20:49:14.737Z,6.83
2022-10-11T20:51:42.736Z,6.80
2022-10-11T20:54:11.468Z,6.76
2022-10-11T20:56:40.074Z,6.76
2022-10-11T20:59:07.918Z,6.76
2022-10-11T21:01:39.760Z,6.74
2022-10-11T21:04:16.525Z,6.68
2022-10-11T21:06:44.283Z,6.63
2022-10-11T21:09:15.459Z,6.60
2022-10-11T21:11:45.228Z,6.60
2022-10-11T21:14:13.279Z,6.59
2022-10-11T21:16:40.983Z,6.60
2022-10-11T21:19:15.083Z,6.56
2022-10-11T21:21:48.363Z,6.52
2022-10-11T21:24:18.853Z,6.47
2022-10-11T21:26:46.655Z,6.42
2022-10-11T21:29:14.862Z,6.32
2022-10-11T21:31:42.432Z,6.23
2022-10-11T21:34:10.078Z,6.30
2022-10-11T21:36:37.929Z,6.31
2022-10-11T21:39:05.675Z,6.30
2022-10-11T21:41:34.076Z,6.27
2022-10-11T21:44:02.235Z,6.20
2022-10-11T21:49:19.977Z,6.30
2022-10-11T21:51:48.374Z,6.22
2022-10-11T21:54:16.392Z,6.26
2022-10-11T21:56:44.038Z,6.24
2022-10-11T21:59:12.590Z,6.17
2022-10-11T22:01:41.931Z,6.16
2022-10-11T22:04:11.113Z,6.17
2022-10-11T22:06:39.444Z,6.15
2022-10-11T22:09:08.581Z,6.07
2022-10-11T22:11:36.486Z,6.04
2022-10-11T22:14:04.581Z,6.04
2022-10-11T22:16:34.796Z,6.00
2022-10-11T22:19:03.020Z,6.09
2022-10-11T22:21:30.927Z,6.15
2022-10-11T22:23:58.557Z,6.12
2022-10-11T22:26:30.788Z,6.03
2022-10-11T22:29:00.145Z,6.00
2022-10-11T22:31:30.032Z,5.94
2022-10-11T22:34:00.813Z,5.90
2022-10-11T22:36:33.779Z,5.96
2022-10-11T22:39:02.729Z,5.93
2022-10-11T22:41:30.280Z,5.85
2022-10-11T22:43:58.108Z,5.85
2022-10-11T22:46:25.771Z,5.88
2022-10-11T22:48:53.486Z,5.91
2022-10-11T22:51:21.073Z,5.87
2022-10-11T22:53:49.265Z,5.78
2022-10-11T22:56:16.913Z,5.73
2022-10-11T22:58:44.549Z,5.72
2022-10-11T23:01:16.231Z,5.65
2022-10-11T23:03:48.340Z,5.61
2022-10-11T23:06:17.250Z,5.64
2022-10-11T23:08:44.855Z,5.70
2022-10-11T23:11:12.595Z,5.67
2022-10-11T23:13:40.389Z,5.67
2022-10-11T23:16:11.473Z,5.72
2022-10-11T23:18:39.685Z,5.64
2022-10-11T23:21:08.132Z,5.57
2022-10-11T23:23:36.359Z,5.51
2022-10-11T23:26:13.123Z,5.51
2022-10-11T23:28:42.539Z,5.56
2022-10-11T23:31:16.942Z,5.51
2022-10-11T23:33:46.620Z,5.53
2022-10-11T23:36:21.496Z,5.55
2022-10-11T23:38:55.103Z,5.55
2022-10-11T23:41:27.472Z,5.49
2022-10-11T23:43:56.406Z,5.42
2022-10-11T23:46:24.551Z,5.41
2022-10-11T23:48:52.167Z,5.41
2022-10-11T23:51:20.034Z,5.38
2022-10-11T23:53:47.706Z,5.34
2022-10-11T23:56:15.574Z,5.34
2022-10-11T23:58:43.409Z,5.38
